createdAt,value
2023-04-20T00:00:36.971Z,92537.97
2023-04-20T00:03:40.282Z,92539.84
2023-04-20T00:06:47.338Z,92540.88
2023-04-20T00:09:54.033Z,92555.47
2023-04-20T00:13:00.228Z,92564.28
2023-04-20T00:16:04.219Z,92561.78
2023-04-20T00:19:11.340Z,92560.88
2023-04-20T00:22:26.309Z,92568.91
2023-04-20T00:25:33.087Z,92572.72
2023-04-20T00:28:40.013Z,92571.25
2023-04-20T00:31:44.422Z,92571.03
2023-04-20T00:34:50.764Z,92576.97
2023-04-20T00:37:57.589Z,92573.63
2023-04-20T00:41:09.970Z,92582.38
2023-04-20T00:44:14.976Z,92577.41
2023-04-20T00:47:19.079Z,92582.25
2023-04-20T00:50:23.087Z,92591.00
2023-04-20T00:53:29.581Z,92602.16
2023-04-20T00:56:33.576Z,92593.59
2023-04-20T00:59:37.547Z,92613.47
2023-04-20T01:02:41.047Z,92626.63
2023-04-20T01:05:45.294Z,92627.06
2023-04-20T01:08:52.286Z,92631.22
2023-04-20T01:11:58.211Z,92635.16
2023-04-20T01:15:03.750Z,92628.22
2023-04-20T01:18:08.657Z,92649.53
2023-04-20T01:21:15.720Z,92638.28
2023-04-20T01:24:22.731Z,92636.47
2023-04-20T01:27:28.073Z,92641.69
2023-04-20T01:30:33.670Z,92644.97
2023-04-20T01:33:41.789Z,92646.00
2023-04-20T01:36:46.016Z,92644.91
2023-04-20T01:39:50.145Z,92649.47
2023-04-20T01:42:57.312Z,92641.47
2023-04-20T01:46:03.777Z,92644.31
2023-04-20T01:49:08.375Z,92651.66
2023-04-20T01:52:13.575Z,92662.03
2023-04-20T01:55:19.942Z,92665.69
2023-04-20T01:58:25.171Z,92668.22
2023-04-20T02:01:29.211Z,92670.75
2023-04-20T02:04:36.560Z,92666.94
2023-04-20T02:07:40.048Z,92677.94
2023-04-20T02:10:43.845Z,92681.16
2023-04-20T02:13:47.494Z,92681.00
2023-04-20T02:16:54.385Z,92687.06
2023-04-20T02:19:58.405Z,92686.13
2023-04-20T02:23:04.057Z,92697.59
2023-04-20T02:26:07.825Z,92697.59
2023-04-20T02:29:11.211Z,92696.09
2023-04-20T02:32:15.916Z,92696.31
2023-04-20T02:35:22.537Z,92696.13
2023-04-20T02:38:27.059Z,92707.94
2023-04-20T02:41:31.304Z,92725.75
2023-04-20T02:44:34.818Z,92710.09
2023-04-20T02:47:39.165Z,92706.81
2023-04-20T02:50:45.240Z,92723.66
2023-04-20T02:53:54.798Z,92720.66
2023-04-20T02:57:05.195Z,92728.72
2023-04-20T03:00:10.299Z,92720.34
2023-04-20T03:03:31.100Z,92726.72
2023-04-20T03:06:38.809Z,92724.31
2023-04-20T03:09:45.017Z,92730.63
2023-04-20T03:12:57.902Z,92723.78
2023-04-20T03:16:09.490Z,92733.81
2023-04-20T03:19:19.614Z,92740.22
2023-04-20T03:22:23.735Z,92735.13
2023-04-20T03:25:31.355Z,92718.19
2023-04-20T03:28:35.853Z,92725.84
2023-04-20T03:31:39.599Z,92733.34
2023-04-20T03:34:43.826Z,92742.72
2023-04-20T03:37:47.230Z,92738.66
2023-04-20T03:40:50.498Z,92740.84
2023-04-20T03:43:54.086Z,92737.09
2023-04-20T03:46:57.219Z,92739.47
2023-04-20T03:50:00.608Z,92733.59
2023-04-20T03:53:03.946Z,92741.78
2023-04-20T03:56:08.542Z,92740.41
2023-04-20T03:59:12.676Z,92752.31
2023-04-20T04:02:18.977Z,92742.97
2023-04-20T04:05:23.797Z,92740.47
2023-04-20T04:08:27.474Z,92748.34
2023-04-20T04:11:31.672Z,92760.16
2023-04-20T04:14:36.253Z,92749.88
2023-04-20T04:17:40.359Z,92761.50
2023-04-20T04:20:43.612Z,92745.56
2023-04-20T04:23:48.437Z,92740.16
2023-04-20T04:27:14.887Z,92741.88
2023-04-20T04:30:28.283Z,92742.09
2023-04-20T04:33:34.820Z,92744.25
2023-04-20T04:36:38.902Z,92749.72
2023-04-20T04:39:45.127Z,92733.66
2023-04-20T04:42:57.412Z,92737.22
2023-04-20T04:46:07.435Z,92747.47
2023-04-20T04:49:11.287Z,92738.00
2023-04-20T04:52:16.817Z,92731.13
2023-04-20T04:55:20.452Z,92742.81
2023-04-20T04:58:23.707Z,92747.25
2023-04-20T05:01:26.996Z,92758.88
2023-04-20T05:04:30.590Z,92753.38
2023-04-20T05:07:33.872Z,92750.63
2023-04-20T05:10:37.216Z,92752.28
2023-04-20T05:13:40.372Z,92764.16
2023-04-20T05:16:43.776Z,92747.16
2023-04-20T05:19:47.291Z,92757.28
2023-04-20T05:22:50.528Z,92752.66
2023-04-20T05:25:53.649Z,92747.22
2023-04-20T05:28:57.151Z,92755.53
2023-04-20T05:32:00.345Z,92743.94
2023-04-20T05:35:04.449Z,92749.38
2023-04-20T05:38:08.116Z,92742.19
2023-04-20T05:41:11.366Z,92750.03
2023-04-20T05:44:14.729Z,92754.75
2023-04-20T05:47:17.997Z,92738.13
2023-04-20T05:50:21.576Z,92734.38
2023-04-20T05:53:24.761Z,92748.94
2023-04-20T05:56:28.420Z,92744.00
2023-04-20T05:59:32.009Z,92754.69
2023-04-20T06:02:35.326Z,92760.66
2023-04-20T06:05:38.681Z,92756.66
2023-04-20T06:08:42.166Z,92756.00
2023-04-20T06:11:45.447Z,92758.66
2023-04-20T06:14:48.616Z,92760.91
2023-04-20T06:17:51.842Z,92766.28
2023-04-20T06:20:55.280Z,92772.72
2023-04-20T06:23:58.380Z,92771.97
2023-04-20T06:27:02.857Z,92785.66
2023-04-20T06:30:07.009Z,92785.88
2023-04-20T06:33:12.379Z,92778.84
2023-04-20T06:36:15.874Z,92792.47
2023-04-20T06:39:19.499Z,92800.56
2023-04-20T06:42:23.582Z,92796.19
2023-04-20T06:45:27.023Z,92799.94
2023-04-20T06:48:32.700Z,92799.53
2023-04-20T06:51:36.385Z,92803.69
2023-04-20T06:54:39.556Z,92786.44
2023-04-20T06:57:44.444Z,92801.13
2023-04-20T07:00:48.350Z,92814.13
2023-04-20T07:03:52.739Z,92815.63
2023-04-20T07:06:56.046Z,92815.63
2023-04-20T07:09:59.491Z,92810.84
2023-04-20T07:13:02.691Z,92810.59
2023-04-20T07:16:07.191Z,92833.50
2023-04-20T07:19:10.522Z,92818.69
2023-04-20T07:22:13.690Z,92822.63
2023-04-20T07:25:18.419Z,92812.91
2023-04-20T07:28:21.691Z,92832.88
2023-04-20T07:31:24.994Z,92830.19
2023-04-20T07:34:28.224Z,92836.56
2023-04-20T07:37:32.620Z,92826.34
2023-04-20T07:40:35.821Z,92835.56
2023-04-20T07:43:39.847Z,92825.81
2023-04-20T07:46:43.026Z,92832.38
2023-04-20T07:49:46.487Z,92847.00
2023-04-20T07:52:49.598Z,92843.78
2023-04-20T07:55:52.745Z,92852.09
2023-04-20T07:58:56.466Z,92847.41
2023-04-20T08:02:01.953Z,92842.94
2023-04-20T08:05:06.038Z,92849.00
2023-04-20T08:08:09.495Z,92853.19
2023-04-20T08:11:13.608Z,92858.63
2023-04-20T08:14:17.119Z,92843.63
2023-04-20T08:17:20.813Z,92857.84
2023-04-20T08:20:24.187Z,92854.63
2023-04-20T08:23:30.627Z,92856.63
2023-04-20T08:26:34.377Z,92862.44
2023-04-20T08:29:38.963Z,92853.88
2023-04-20T08:32:42.178Z,92858.44
2023-04-20T08:35:45.502Z,92866.88
2023-04-20T08:38:56.099Z,92855.69
2023-04-20T08:41:59.504Z,92867.25
2023-04-20T08:45:02.804Z,92869.47
2023-04-20T08:48:11.252Z,92872.97
2023-04-20T08:51:17.813Z,92871.41
2023-04-20T08:54:22.184Z,92870.09
2023-04-20T08:57:27.763Z,92881.72
2023-04-20T09:00:31.355Z,92884.25
2023-04-20T09:03:39.322Z,92889.03
2023-04-20T09:06:49.845Z,92882.50
2023-04-20T09:09:57.631Z,92885.06
2023-04-20T09:13:00.867Z,92889.91
2023-04-20T09:16:14.380Z,92894.88
2023-04-20T09:19:25.890Z,92889.69
2023-04-20T09:22:33.715Z,92893.59
2023-04-20T09:25:37.120Z,92900.38
2023-04-20T09:28:40.568Z,92891.19
2023-04-20T09:31:43.800Z,92900.88
2023-04-20T09:34:46.975Z,92897.69
2023-04-20T09:37:50.376Z,92901.94
2023-04-20T09:40:53.721Z,92911.00
2023-04-20T09:43:57.458Z,92911.91
2023-04-20T09:47:00.834Z,92913.59
2023-04-20T09:50:19.422Z,92917.41
2023-04-20T09:53:27.232Z,92924.97
2023-04-20T09:56:31.335Z,92927.34
2023-04-20T09:59:34.793Z,92940.66
2023-04-20T10:02:38.783Z,92946.84
2023-04-20T10:05:43.574Z,92946.03
2023-04-20T10:08:47.166Z,92956.63
2023-04-20T10:11:54.037Z,92964.53
2023-04-20T10:14:58.566Z,92970.03
2023-04-20T10:18:01.951Z,92967.47
2023-04-20T10:21:10.478Z,92966.47
2023-04-20T10:24:13.826Z,92964.41
2023-04-20T10:27:23.759Z,92973.78
2023-04-20T10:30:28.505Z,92980.78
2023-04-20T10:33:31.582Z,92991.09
2023-04-20T10:36:37.816Z,92993.94
2023-04-20T10:39:48.518Z,92989.06
2023-04-20T10:42:51.937Z,92998.19
2023-04-20T10:45:55.197Z,93000.97
2023-04-20T10:49:02.172Z,93006.34
2023-04-20T10:52:05.606Z,93010.41
2023-04-20T10:55:23.230Z,93009.41
2023-04-20T10:58:26.673Z,93020.56
2023-04-20T11:01:33.436Z,93028.03
2023-04-20T11:04:37.808Z,93046.41
2023-04-20T11:07:54.960Z,93039.03
2023-04-20T11:10:58.157Z,93043.84
2023-04-20T11:14:12.047Z,93060.69
2023-04-20T11:17:15.223Z,93060.03
2023-04-20T11:20:19.236Z,93078.94
2023-04-20T11:23:23.979Z,93079.31
2023-04-20T11:26:37.671Z,93089.75
2023-04-20T11:29:41.190Z,93093.22
2023-04-20T11:32:44.539Z,93102.09
2023-04-20T11:35:48.073Z,93107.81
2023-04-20T11:38:51.586Z,93104.84
2023-04-20T11:41:55.218Z,93121.25
2023-04-20T11:44:58.461Z,93129.44
2023-04-20T11:48:01.971Z,93128.09
2023-04-20T11:51:05.381Z,93140.94
2023-04-20T11:54:08.570Z,93139.81
2023-04-20T11:57:12.203Z,93151.22
2023-04-20T12:00:15.994Z,93160.09
2023-04-20T12:03:19.103Z,93161.44
2023-04-20T12:06:23.023Z,93170.28
2023-04-20T12:09:31.119Z,93179.31
2023-04-20T12:12:34.732Z,93179.31
2023-04-20T12:15:38.157Z,93183.97
2023-04-20T12:18:42.091Z,93192.25
2023-04-20T12:21:47.342Z,93199.19
2023-04-20T12:24:50.506Z,93201.75
2023-04-20T12:27:53.602Z,93206.91
2023-04-20T12:30:56.875Z,93214.03
2023-04-20T12:34:01.010Z,93208.91
2023-04-20T12:37:04.195Z,93219.75
2023-04-20T12:40:08.640Z,93223.38
2023-04-20T12:43:11.893Z,93230.31
2023-04-20T12:46:15.238Z,93221.16
2023-04-20T12:49:19.176Z,93231.44
2023-04-20T12:52:22.904Z,93230.19
2023-04-20T12:55:27.320Z,93223.44
2023-04-20T12:58:30.748Z,93235.34
2023-04-20T13:01:34.229Z,93244.19
2023-04-20T13:04:37.743Z,93235.97
2023-04-20T13:07:41.248Z,93238.34
2023-04-20T13:10:44.508Z,93243.75
2023-04-20T13:13:47.866Z,93245.97
2023-04-20T13:16:52.355Z,93247.53
2023-04-20T13:19:57.726Z,93259.41
2023-04-20T13:23:02.041Z,93270.78
2023-04-20T13:26:06.485Z,93265.38
2023-04-20T13:29:09.728Z,93261.69
2023-04-20T13:32:12.945Z,93262.63
2023-04-20T13:35:17.240Z,93268.69
2023-04-20T13:38:20.466Z,93265.13
2023-04-20T13:41:27.268Z,93257.13
2023-04-20T13:44:30.471Z,93254.13
2023-04-20T13:47:34.332Z,93257.91
2023-04-20T13:50:37.635Z,93259.50
2023-04-20T13:53:40.927Z,93261.41
2023-04-20T13:56:44.803Z,93256.06
2023-04-20T13:59:48.298Z,93255.75
2023-04-20T14:02:51.663Z,93253.53
2023-04-20T14:05:55.059Z,93255.31
2023-04-20T14:08:58.264Z,93260.34
2023-04-20T14:12:03.108Z,93255.09
2023-04-20T14:15:06.834Z,93253.00
2023-04-20T14:18:10.062Z,93254.78
2023-04-20T14:21:13.253Z,93253.44
2023-04-20T14:24:16.603Z,93243.50
2023-04-20T14:27:20.152Z,93252.34
2023-04-20T14:30:23.898Z,93261.03
2023-04-20T14:33:27.571Z,93255.25
2023-04-20T14:36:31.521Z,93257.44
2023-04-20T14:39:34.811Z,93256.56
2023-04-20T14:42:38.313Z,93265.94
2023-04-20T14:45:42.462Z,93261.94
2023-04-20T14:48:46.871Z,93269.50
2023-04-20T14:51:51.696Z,93266.03
2023-04-20T14:54:54.603Z,93271.94
2023-04-20T14:58:00.510Z,93266.47
2023-04-20T15:01:04.276Z,93277.28
2023-04-20T15:04:08.217Z,93271.81
2023-04-20T15:07:11.844Z,93270.06
2023-04-20T15:10:15.340Z,93276.94
2023-04-20T15:13:18.456Z,93276.72
2023-04-20T15:16:21.728Z,93274.59
2023-04-20T15:19:24.933Z,93275.69
2023-04-20T15:22:28.046Z,93276.16
2023-04-20T15:25:31.750Z,93282.38
2023-04-20T15:28:34.964Z,93293.84
2023-04-20T15:31:38.296Z,93295.06
2023-04-20T15:34:41.749Z,93298.16
2023-04-20T15:37:47.110Z,93303.72
2023-04-20T15:40:52.580Z,93306.03
2023-04-20T15:43:55.962Z,93305.28
2023-04-20T15:46:59.215Z,93305.94
2023-04-20T15:50:03.858Z,93299.25
2023-04-20T15:53:07.934Z,93309.47
2023-04-20T15:56:11.207Z,93306.91
2023-04-20T15:59:14.553Z,93316.34
2023-04-20T16:02:17.933Z,93318.81
2023-04-20T16:05:22.142Z,93309.13
2023-04-20T16:08:25.300Z,93319.91
2023-04-20T16:11:28.511Z,93324.91
2023-04-20T16:14:32.250Z,93322.13
2023-04-20T16:17:35.411Z,93327.53
2023-04-20T16:20:40.054Z,93330.09
2023-04-20T16:23:44.573Z,93330.75
2023-04-20T16:26:47.708Z,93335.66
2023-04-20T16:29:50.973Z,93330.31
2023-04-20T16:32:54.192Z,93349.72
2023-04-20T16:35:57.421Z,93348.25
2023-04-20T16:39:03.851Z,93361.09
2023-04-20T16:42:07.045Z,93358.63
2023-04-20T16:45:10.300Z,93367.13
2023-04-20T16:48:13.478Z,93368.09
2023-04-20T16:51:16.601Z,93366.75
2023-04-20T16:54:19.910Z,93374.00
2023-04-20T16:57:23.903Z,93370.34
2023-04-20T17:00:31.386Z,93376.25
2023-04-20T17:03:35.058Z,93374.25
2023-04-20T17:06:38.416Z,93374.78
2023-04-20T17:09:41.572Z,93370.34
2023-04-20T17:12:44.880Z,93368.91
2023-04-20T17:15:48.263Z,93375.09
2023-04-20T17:18:52.725Z,93369.19
2023-04-20T17:21:55.884Z,93374.69
2023-04-20T17:24:59.084Z,93375.91
2023-04-20T17:28:03.325Z,93372.72
2023-04-20T17:31:06.874Z,93372.03
2023-04-20T17:34:11.197Z,93371.47
2023-04-20T17:37:14.818Z,93376.59
2023-04-20T17:40:18.132Z,93376.59
2023-04-20T17:43:21.324Z,93376.34
2023-04-20T17:46:24.674Z,93376.34
2023-04-20T17:49:29.364Z,93384.69
2023-04-20T17:52:32.664Z,93383.09
2023-04-20T17:55:36.446Z,93387.16
2023-04-20T17:58:39.579Z,93391.25
2023-04-20T18:01:42.962Z,93386.19
2023-04-20T18:04:46.385Z,93381.25
2023-04-20T18:07:49.821Z,93379.00
2023-04-20T18:10:53.110Z,93382.22
2023-04-20T18:13:56.250Z,93381.56
2023-04-20T18:16:59.388Z,93382.06
2023-04-20T18:20:02.689Z,93388.38
2023-04-20T18:23:05.863Z,93389.75
2023-04-20T18:26:14.397Z,93390.56
2023-04-20T18:29:17.891Z,93392.31
2023-04-20T18:32:21.583Z,93395.81
2023-04-20T18:35:24.808Z,93393.50
2023-04-20T18:38:28.093Z,93394.47
2023-04-20T18:41:31.291Z,93395.00
2023-04-20T18:44:34.514Z,93396.19
2023-04-20T18:47:37.694Z,93395.91
2023-04-20T18:50:40.910Z,93387.97
2023-04-20T18:53:44.104Z,93394.44
2023-04-20T18:56:47.432Z,93395.63
2023-04-20T18:59:50.590Z,93400.75
2023-04-20T19:02:53.977Z,93403.03
2023-04-20T19:05:57.474Z,93402.91
2023-04-20T19:09:02.099Z,93409.22
2023-04-20T19:12:05.304Z,93418.22
2023-04-20T19:15:09.632Z,93410.19
2023-04-20T19:18:12.811Z,93410.56
2023-04-20T19:21:21.961Z,93415.41
2023-04-20T19:24:25.306Z,93418.38
2023-04-20T19:27:28.896Z,93420.75
2023-04-20T19:30:32.058Z,93432.84
2023-04-20T19:33:35.243Z,93424.28
2023-04-20T19:36:38.364Z,93430.72
2023-04-20T19:39:41.692Z,93429.50
2023-04-20T19:42:45.518Z,93428.16
2023-04-20T19:45:48.944Z,93433.66
2023-04-20T19:48:52.389Z,93432.59
2023-04-20T19:51:55.744Z,93437.41
2023-04-20T19:54:59.000Z,93426.53
2023-04-20T19:58:02.402Z,93438.50
2023-04-20T20:01:06.653Z,93435.09
2023-04-20T20:04:10.053Z,93441.81
2023-04-20T20:07:14.094Z,93443.94
2023-04-20T20:10:17.266Z,93435.38
2023-04-20T20:13:20.583Z,93445.56
2023-04-20T20:16:23.811Z,93449.22
2023-04-20T20:19:28.544Z,93447.44
2023-04-20T20:22:31.356Z,93462.88
2023-04-20T20:25:35.365Z,93453.19
2023-04-20T20:28:38.884Z,93458.03
2023-04-20T20:31:42.216Z,93460.44
2023-04-20T20:34:46.590Z,93458.81
2023-04-20T20:37:49.798Z,93462.03
2023-04-20T20:40:54.139Z,93460.00
2023-04-20T20:43:58.633Z,93460.69
2023-04-20T20:47:01.969Z,93470.88
2023-04-20T20:50:05.681Z,93473.44
2023-04-20T20:53:09.584Z,93469.00
2023-04-20T20:56:12.793Z,93479.06
2023-04-20T20:59:16.251Z,93473.84
2023-04-20T21:02:19.634Z,93479.28
2023-04-20T21:05:24.494Z,93477.16
2023-04-20T21:08:27.779Z,93477.69
2023-04-20T21:11:31.045Z,93476.47
2023-04-20T21:14:34.311Z,93481.00
2023-04-20T21:17:37.667Z,93478.69
2023-04-20T21:20:41.130Z,93480.19
2023-04-20T21:23:44.440Z,93478.59
2023-04-20T21:26:47.712Z,93487.59
2023-04-20T21:29:50.905Z,93484.53
2023-04-20T21:32:54.066Z,93494.84
2023-04-20T21:35:58.916Z,93483.72
2023-04-20T21:39:02.331Z,93486.16
2023-04-20T21:42:05.770Z,93487.56
2023-04-20T21:45:09.707Z,93487.13
2023-04-20T21:48:13.106Z,93485.03
2023-04-20T21:51:17.554Z,93494.97
2023-04-20T21:54:20.897Z,93500.22
2023-04-20T21:57:24.210Z,93499.16
2023-04-20T22:00:27.550Z,93505.47
2023-04-20T22:03:32.104Z,93500.22
2023-04-20T22:06:35.497Z,93512.97
2023-04-20T22:09:39.052Z,93512.88
2023-04-20T22:12:43.443Z,93520.56
2023-04-20T22:15:48.246Z,93521.47
2023-04-20T22:18:51.766Z,93522.22
2023-04-20T22:21:55.253Z,93538.06
2023-04-20T22:25:02.465Z,93541.31
2023-04-20T22:28:10.678Z,93549.00
2023-04-20T22:31:15.047Z,93545.22
2023-04-20T22:34:18.420Z,93536.44
2023-04-20T22:37:21.794Z,93559.56
2023-04-20T22:40:25.063Z,93565.06
2023-04-20T22:43:28.454Z,93564.59
2023-04-20T22:46:31.804Z,93566.50
2023-04-20T22:49:36.449Z,93576.66
2023-04-20T22:52:40.265Z,93580.22
2023-04-20T22:55:43.686Z,93577.03
2023-04-20T22:58:46.892Z,93580.34
2023-04-20T23:01:53.622Z,93586.84
2023-04-20T23:04:57.756Z,93584.75
2023-04-20T23:08:01.466Z,93583.78
2023-04-20T23:11:05.598Z,93594.84
2023-04-20T23:14:10.013Z,93595.69
2023-04-20T23:17:13.787Z,93597.56
2023-04-20T23:20:17.299Z,93601.16
2023-04-20T23:23:20.555Z,93594.22
2023-04-20T23:26:24.488Z,93610.53
2023-04-20T23:29:27.793Z,93612.03
2023-04-20T23:32:31.283Z,93616.19
2023-04-20T23:35:34.437Z,93617.34
2023-04-20T23:38:38.001Z,93622.94
2023-04-20T23:41:41.354Z,93629.34
2023-04-20T23:44:44.606Z,93630.56
2023-04-20T23:47:48.080Z,93630.44
2023-04-20T23:50:51.284Z,93625.50
2023-04-20T23:53:54.523Z,93631.22
2023-04-20T23:56:57.757Z,93637.63
